Аэропорт: Талаги. Архангельск

ICAO: ULAA

METAR:
2018/05/20 23:00
ULAA 202300Z 14001MPS CAVOK 02/02 Q1022 R26/CLRD70 NOSIG RMK QFE765/1020
METAR:
2018/05/20 21:27
TAF TAF ULAA 201956Z 2021/2121 26003MPS 6000 SCT011 
      TEMPO 2021/2103 VRB01MPS 0400 FG BKN002 
      TEMPO 2103/2106 24003G08MPS 3100 -RA BR BKN007 
     FM210600 24006MPS 9999 SCT012 
      TEMPO 2107/2118 28007G14MPS 3100 -SHRA BKN011CB